sensor_id;sensor_type;location;lat;lon;timestamp;pressure;altitude;pressure_sealevel;temperature;humidity
22743;BME280;11538;48.884;8.696;2023-03-22T00:02:25;98613.53;;;9.69;100.00
22743;BME280;11538;48.884;8.696;2023-03-22T00:04:52;98613.63;;;9.64;100.00
22743;BME280;11538;48.884;8.696;2023-03-22T00:07:19;98610.09;;;9.63;100.00
22743;BME280;11538;48.884;8.696;2023-03-22T00:09:46;98608.25;;;9.45;100.00
22743;BME280;11538;48.884;8.696;2023-03-22T00:12:13;98617.13;;;9.31;100.00
22743;BME280;11538;48.884;8.696;2023-03-22T00:14:40;98612.38;;;9.23;100.00
22743;BME280;11538;48.884;8.696;2023-03-22T00:17:07;98614.06;;;9.19;100.00
22743;BME280;11538;48.884;8.696;2023-03-22T00:19:33;98608.94;;;9.17;100.00
22743;BME280;11538;48.884;8.696;2023-03-22T00:22:01;98600.13;;;9.12;100.00
22743;BME280;11538;48.884;8.696;2023-03-22T00:24:31;98603.84;;;9.16;100.00
22743;BME280;11538;48.884;8.696;2023-03-22T00:26:59;98599.44;;;9.01;100.00
22743;BME280;11538;48.884;8.696;2023-03-22T00:29:26;98599.03;;;8.93;100.00
22743;BME280;11538;48.884;8.696;2023-03-22T00:31:53;98595.97;;;9.00;100.00
22743;BME280;11538;48.884;8.696;2023-03-22T00:34:21;98587.75;;;9.05;100.00
22743;BME280;11538;48.884;8.696;2023-03-22T00:36:48;98583.44;;;9.04;100.00
22743;BME280;11538;48.884;8.696;2023-03-22T00:39:15;98576.28;;;8.95;100.00
22743;BME280;11538;48.884;8.696;2023-03-22T00:41:42;98573.06;;;8.92;100.00
22743;BME280;11538;48.884;8.696;2023-03-22T00:44:08;98573.06;;;8.92;100.00
22743;BME280;11538;48.884;8.696;2023-03-22T00:46:35;98573.88;;;8.93;100.00
22743;BME280;11538;48.884;8.696;2023-03-22T00:49:03;98570.88;;;8.95;100.00
22743;BME280;11538;48.884;8.696;2023-03-22T00:51:29;98566.88;;;8.92;100.00
22743;BME280;11538;48.884;8.696;2023-03-22T00:53:56;98563.34;;;8.91;100.00
22743;BME280;11538;48.884;8.696;2023-03-22T00:56:23;98559.41;;;8.84;100.00
22743;BME280;11538;48.884;8.696;2023-03-22T00:58:51;98556.41;;;8.85;100.00
22743;BME280;11538;48.884;8.696;2023-03-22T01:01:17;98561.31;;;8.83;100.00
22743;BME280;11538;48.884;8.696;2023-03-22T01:03:44;98553.13;;;8.88;100.00
22743;BME280;11538;48.884;8.696;2023-03-22T01:06:15;98549.19;;;8.81;100.00
22743;BME280;11538;48.884;8.696;2023-03-22T01:08:42;98546.25;;;8.77;100.00
22743;BME280;11538;48.884;8.696;2023-03-22T01:11:09;98530.78;;;8.63;100.00
22743;BME280;11538;48.884;8.696;2023-03-22T01:13:37;98539.22;;;8.57;100.00
22743;BME280;11538;48.884;8.696;2023-03-22T01:16:06;98540.22;;;8.66;100.00
22743;BME280;11538;48.884;8.696;2023-03-22T01:18:34;98537.19;;;8.68;100.00
22743;BME280;11538;48.884;8.696;2023-03-22T01:21:02;98539.69;;;8.64;100.00
22743;BME280;11538;48.884;8.696;2023-03-22T01:23:29;98529.44;;;8.61;100.00
22743;BME280;11538;48.884;8.696;2023-03-22T01:25:56;98532.22;;;8.56;100.00
22743;BME280;11538;48.884;8.696;2023-03-22T01:28:23;98522.56;;;8.49;100.00
22743;BME280;11538;48.884;8.696;2023-03-22T01:30:54;98527.41;;;8.53;100.00
22743;BME280;11538;48.884;8.696;2023-03-22T01:33:21;98526.59;;;8.52;100.00
22743;BME280;11538;48.884;8.696;2023-03-22T01:35:48;98530.16;;;8.47;100.00
22743;BME280;11538;48.884;8.696;2023-03-22T01:38:15;98526.13;;;8.45;100.00
22743;BME280;11538;48.884;8.696;2023-03-22T01:40:42;98520.22;;;8.43;100.00
22743;BME280;11538;48.884;8.696;2023-03-22T01:43:13;98525.63;;;8.43;100.00
22743;BME280;11538;48.884;8.696;2023-03-22T01:45:51;98524.22;;;8.45;100.00
22743;BME280;11538;48.884;8.696;2023-03-22T01:48:24;98525.63;;;8.43;100.00
22743;BME280;11538;48.884;8.696;2023-03-22T01:51:24;98522.47;;;8.36;100.00
22743;BME280;11538;48.884;8.696;2023-03-22T01:53:57;98524.09;;;8.37;100.00
22743;BME280;11538;48.884;8.696;2023-03-22T01:56:30;98525.53;;;8.29;100.00
22743;BME280;11538;48.884;8.696;2023-03-22T01:58:58;98520.44;;;8.27;100.00
22743;BME280;11538;48.884;8.696;2023-03-22T02:01:27;98518.00;;;8.26;100.00
22743;BME280;11538;48.884;8.696;2023-03-22T02:04:14;98517.66;;;8.32;100.00
22743;BME280;11538;48.884;8.696;2023-03-22T02:06:42;98515.16;;;8.36;100.00
22743;BME280;11538;48.884;8.696;2023-03-22T02:09:12;98505.44;;;8.35;100.00
22743;BME280;11538;48.884;8.696;2023-03-22T02:11:43;98507.72;;;8.28;100.00
22743;BME280;11538;48.884;8.696;2023-03-22T02:30:09;98511.00;;;8.25;100.00
22743;BME280;11538;48.884;8.696;2023-03-22T02:39:16;98492.53;;;8.13;100.00
22743;BME280;11538;48.884;8.696;2023-03-22T02:50:30;98499.16;;;8.01;100.00
22743;BME280;11538;48.884;8.696;2023-03-22T02:53:39;98499.44;;;8.00;100.00
22743;BME280;11538;48.884;8.696;2023-03-22T02:56:32;98503.75;;;8.01;100.00
22743;BME280;11538;48.884;8.696;2023-03-22T02:59:03;98503.16;;;8.04;100.00
22743;BME280;11538;48.884;8.696;2023-03-22T03:01:43;98507.19;;;8.07;100.00
22743;BME280;11538;48.884;8.696;2023-03-22T03:04:18;98505.06;;;8.03;100.00
22743;BME280;11538;48.884;8.696;2023-03-22T03:06:50;98502.72;;;7.97;100.00
22743;BME280;11538;48.884;8.696;2023-03-22T03:09:19;98503.53;;;7.97;100.00
22743;BME280;11538;48.884;8.696;2023-03-22T03:11:49;98505.13;;;7.98;100.00
22743;BME280;11538;48.884;8.696;2023-03-22T03:14:31;98504.66;;;7.91;100.00
22743;BME280;11538;48.884;8.696;2023-03-22T03:19:37;98501.69;;;7.68;100.00
22743;BME280;11538;48.884;8.696;2023-03-22T03:27:44;98494.03;;;7.75;100.00
22743;BME280;11538;48.884;8.696;2023-03-22T03:30:29;98493.19;;;7.80;100.00
22743;BME280;11538;48.884;8.696;2023-03-22T03:33:05;98490.44;;;7.85;100.00
22743;BME280;11538;48.884;8.696;2023-03-22T03:35:50;98490.03;;;7.73;100.00
22743;BME280;11538;48.884;8.696;2023-03-22T03:38:24;98485.28;;;7.65;100.00
22743;BME280;11538;48.884;8.696;2023-03-22T03:41:11;98489.00;;;7.69;100.00
22743;BME280;11538;48.884;8.696;2023-03-22T03:43:40;98487.41;;;7.68;100.00
22743;BME280;11538;48.884;8.696;2023-03-22T03:46:08;98492.56;;;7.64;100.00
22743;BME280;11538;48.884;8.696;2023-03-22T03:48:39;98491.88;;;7.53;100.00
22743;BME280;11538;48.884;8.696;2023-03-22T03:51:08;98487.13;;;7.45;100.00
22743;BME280;11538;48.884;8.696;2023-03-22T03:53:35;98480.84;;;7.50;100.00
22743;BME280;11538;48.884;8.696;2023-03-22T03:56:01;98481.88;;;7.54;100.00
22743;BME280;11538;48.884;8.696;2023-03-22T03:58:28;98479.06;;;7.64;100.00
22743;BME280;11538;48.884;8.696;2023-03-22T04:00:56;98475.22;;;7.70;100.00
22743;BME280;11538;48.884;8.696;2023-03-22T04:03:24;98477.84;;;7.75;100.00
22743;BME280;11538;48.884;8.696;2023-03-22T04:05:51;98472.44;;;7.75;100.00
22743;BME280;11538;48.884;8.696;2023-03-22T04:08:18;98469.47;;;7.77;100.00
22743;BME280;11538;48.884;8.696;2023-03-22T04:10:49;98470.56;;;7.76;100.00
22743;BME280;11538;48.884;8.696;2023-03-22T04:13:18;98465.44;;;7.74;100.00
22743;BME280;11538;48.884;8.696;2023-03-22T04:15:52;98464.41;;;7.70;100.00
22743;BME280;11538;48.884;8.696;2023-03-22T04:18:20;98469.28;;;7.68;100.00
22743;BME280;11538;48.884;8.696;2023-03-22T04:20:47;98465.56;;;7.64;100.00
22743;BME280;11538;48.884;8.696;2023-03-22T04:23:15;98471.03;;;7.59;100.00
22743;BME280;11538;48.884;8.696;2023-03-22T04:25:42;98470.50;;;7.57;100.00
22743;BME280;11538;48.884;8.696;2023-03-22T04:28:09;98457.59;;;7.54;100.00
22743;BME280;11538;48.884;8.696;2023-03-22T04:30:36;98466.44;;;7.59;100.00
22743;BME280;11538;48.884;8.696;2023-03-22T04:33:04;98466.19;;;7.56;100.00
22743;BME280;11538;48.884;8.696;2023-03-22T04:35:34;98465.69;;;7.54;100.00
22743;BME280;11538;48.884;8.696;2023-03-22T04:38:01;98459.19;;;7.55;100.00
22743;BME280;11538;48.884;8.696;2023-03-22T04:40:28;98453.28;;;7.53;100.00
22743;BME280;11538;48.884;8.696;2023-03-22T04:43:01;98453.06;;;7.49;100.00
22743;BME280;11538;48.884;8.696;2023-03-22T04:45:30;98444.66;;;7.51;100.00
22743;BME280;11538;48.884;8.696;2023-03-22T04:47:59;98448.41;;;7.55;100.00
22743;BME280;11538;48.884;8.696;2023-03-22T04:50:26;98448.13;;;7.56;100.00
22743;BME280;11538;48.884;8.696;2023-03-22T04:52:53;98444.91;;;7.54;100.00
22743;BME280;11538;48.884;8.696;2023-03-22T04:55:20;98449.53;;;7.49;100.00
22743;BME280;11538;48.884;8.696;2023-03-22T04:57:47;98438.81;;;7.43;100.00
22743;BME280;11538;48.884;8.696;2023-03-22T05:00:15;98437.78;;;7.39;100.00
22743;BME280;11538;48.884;8.696;2023-03-22T05:02:42;98431.94;;;7.32;100.00
22743;BME280;11538;48.884;8.696;2023-03-22T05:05:09;98429.16;;;7.37;100.00
22743;BME280;11538;48.884;8.696;2023-03-22T05:07:36;98434.44;;;7.47;100.00
22743;BME280;11538;48.884;8.696;2023-03-22T05:10:06;98431.81;;;7.42;100.00
22743;BME280;11538;48.884;8.696;2023-03-22T05:12:33;98430.25;;;7.36;100.00
22743;BME280;11538;48.884;8.696;2023-03-22T05:15:00;98429.16;;;7.37;100.00
22743;BME280;11538;48.884;8.696;2023-03-22T05:17:29;98433.00;;;7.31;100.00
22743;BME280;11538;48.884;8.696;2023-03-22T05:19:56;98431.41;;;7.30;100.00
22743;BME280;11538;48.884;8.696;2023-03-22T05:22:23;98431.34;;;7.35;100.00
22743;BME280;11538;48.884;8.696;2023-03-22T05:24:50;98441.06;;;7.36;100.00
22743;BME280;11538;48.884;8.696;2023-03-22T05:27:16;98437.56;;;7.36;100.00
22743;BME280;11538;48.884;8.696;2023-03-22T05:29:56;98447.06;;;7.28;100.00
22743;BME280;11538;48.884;8.696;2023-03-22T05:32:23;98445.66;;;7.36;100.00
22743;BME280;11538;48.884;8.696;2023-03-22T05:34:51;98451.06;;;7.36;100.00
22743;BME280;11538;48.884;8.696;2023-03-22T05:37:18;98449.44;;;7.35;100.00
22743;BME280;11538;48.884;8.696;2023-03-22T05:39:46;98446.91;;;7.43;100.00
22743;BME280;11538;48.884;8.696;2023-03-22T05:42:13;98452.31;;;7.43;100.00
22743;BME280;11538;48.884;8.696;2023-03-22T05:44:40;98455.53;;;7.45;100.00
22743;BME280;11538;48.884;8.696;2023-03-22T05:47:07;98456.03;;;7.47;100.00
22743;BME280;11538;48.884;8.696;2023-03-22T05:49:33;98455.81;;;7.44;100.00
22743;BME280;11538;48.884;8.696;2023-03-22T05:52:00;98464.19;;;7.42;100.00
22743;BME280;11538;48.884;8.696;2023-03-22T05:54:29;98458.78;;;7.42;100.00
22743;BME280;11538;48.884;8.696;2023-03-22T05:56:56;98464.19;;;7.42;100.00
22743;BME280;11538;48.884;8.696;2023-03-22T05:59:23;98469.38;;;7.39;100.00
22743;BME280;11538;48.884;8.696;2023-03-22T06:01:50;98462.00;;;7.44;100.00
22743;BME280;11538;48.884;8.696;2023-03-22T06:04:17;98470.09;;;7.44;100.00
22743;BME280;11538;48.884;8.696;2023-03-22T06:06:44;98466.25;;;7.51;100.00
22743;BME280;11538;48.884;8.696;2023-03-22T06:09:11;98462.19;;;7.53;100.00
22743;BME280;11538;48.884;8.696;2023-03-22T06:11:43;98467.41;;;7.44;100.00
22743;BME280;11538;48.884;8.696;2023-03-22T06:14:10;98459.16;;;7.36;100.00
22743;BME280;11538;48.884;8.696;2023-03-22T06:16:37;98461.13;;;7.25;100.00
22743;BME280;11538;48.884;8.696;2023-03-22T06:19:04;98457.88;;;7.28;100.00
22743;BME280;11538;48.884;8.696;2023-03-22T06:21:31;98462.41;;;7.32;100.00
22743;BME280;11538;48.884;8.696;2023-03-22T06:23:58;98468.22;;;7.45;100.00
22743;BME280;11538;48.884;8.696;2023-03-22T06:26:24;98463.16;;;7.38;100.00
22743;BME280;11538;48.884;8.696;2023-03-22T06:28:51;98464.28;;;7.32;100.00
22743;BME280;11538;48.884;8.696;2023-03-22T06:31:18;98465.13;;;7.32;100.00
22743;BME280;11538;48.884;8.696;2023-03-22T06:33:45;98463.97;;;7.39;100.00
22743;BME280;11538;48.884;8.696;2023-03-22T06:36:12;98468.44;;;7.49;100.00
22743;BME280;11538;48.884;8.696;2023-03-22T06:38:39;98470.50;;;7.57;100.00
22743;BME280;11538;48.884;8.696;2023-03-22T06:41:05;98469.59;;;7.67;100.00
22743;BME280;11538;48.884;8.696;2023-03-22T06:43:32;98469.22;;;7.73;100.00
22743;BME280;11538;48.884;8.696;2023-03-22T06:45:59;98470.84;;;7.74;100.00
22743;BME280;11538;48.884;8.696;2023-03-22T06:48:26;98467.56;;;7.78;100.00
22743;BME280;11538;48.884;8.696;2023-03-22T06:50:53;98463.38;;;7.90;100.00
22743;BME280;11538;48.884;8.696;2023-03-22T06:53:20;98456.72;;;8.02;100.00
22743;BME280;11538;48.884;8.696;2023-03-22T06:55:47;98458.50;;;8.12;100.00
22743;BME280;11538;48.884;8.696;2023-03-22T06:58:14;98456.53;;;8.17;100.00
22743;BME280;11538;48.884;8.696;2023-03-22T07:00:41;98464.03;;;8.20;100.00
22743;BME280;11538;48.884;8.696;2023-03-22T07:03:08;98457.41;;;8.32;100.00
22743;BME280;11538;48.884;8.696;2023-03-22T07:05:35;98451.06;;;8.42;100.00
22743;BME280;11538;48.884;8.696;2023-03-22T07:08:02;98460.13;;;8.51;100.00
22743;BME280;11538;48.884;8.696;2023-03-22T07:10:29;98455.66;;;8.60;100.00
22743;BME280;11538;48.884;8.696;2023-03-22T07:12:56;98455.88;;;8.64;100.00
22743;BME280;11538;48.884;8.696;2023-03-22T07:15:23;98451.78;;;8.67;100.00
22743;BME280;11538;48.884;8.696;2023-03-22T07:17:51;98456.22;;;8.76;100.00
22743;BME280;11538;48.884;8.696;2023-03-22T07:20:18;98462.25;;;8.87;100.00
22743;BME280;11538;48.884;8.696;2023-03-22T07:22:45;98463.50;;;8.95;100.00
22743;BME280;11538;48.884;8.696;2023-03-22T07:25:12;98464.09;;;9.06;100.00
22743;BME280;11538;48.884;8.696;2023-03-22T07:27:39;98466.13;;;9.14;99.87
22743;BME280;11538;48.884;8.696;2023-03-22T07:30:11;98459.50;;;9.20;99.36
22743;BME280;11538;48.884;8.696;2023-03-22T07:32:39;98456.66;;;9.31;99.94
22743;BME280;11538;48.884;8.696;2023-03-22T07:35:07;98453.44;;;9.43;98.33
22743;BME280;11538;48.884;8.696;2023-03-22T07:37:37;98455.16;;;9.53;98.62
22743;BME280;11538;48.884;8.696;2023-03-22T07:40:05;98465.69;;;9.68;98.74
22743;BME280;11538;48.884;8.696;2023-03-22T07:42:32;98453.09;;;9.86;98.51
22743;BME280;11538;48.884;8.696;2023-03-22T07:45:02;98460.00;;;10.06;97.48
22743;BME280;11538;48.884;8.696;2023-03-22T07:47:29;98448.03;;;10.21;96.58
22743;BME280;11538;48.884;8.696;2023-03-22T07:50:09;98451.63;;;10.31;95.72
22743;BME280;11538;48.884;8.696;2023-03-22T07:52:41;98451.91;;;10.43;95.48
22743;BME280;11538;48.884;8.696;2023-03-22T07:55:11;98443.41;;;10.59;93.99
22743;BME280;11538;48.884;8.696;2023-03-22T07:57:41;98447.84;;;10.77;92.51
22743;BME280;11538;48.884;8.696;2023-03-22T08:00:10;98444.31;;;11.00;90.90
22743;BME280;11538;48.884;8.696;2023-03-22T08:02:37;98450.34;;;11.19;89.57
22743;BME280;11538;48.884;8.696;2023-03-22T08:05:05;98449.16;;;11.43;86.62
22743;BME280;11538;48.884;8.696;2023-03-22T08:07:32;98447.16;;;11.66;86.20
22743;BME280;11538;48.884;8.696;2023-03-22T08:09:59;98449.31;;;11.87;84.93
22743;BME280;11538;48.884;8.696;2023-03-22T08:12:26;98450.03;;;12.10;83.71
22743;BME280;11538;48.884;8.696;2023-03-22T08:14:53;98459.13;;;12.41;80.27
22743;BME280;11538;48.884;8.696;2023-03-22T08:17:20;98453.06;;;12.79;77.52
22743;BME280;11538;48.884;8.696;2023-03-22T08:19:47;98460.81;;;13.16;75.54
22743;BME280;11538;48.884;8.696;2023-03-22T08:22:15;98459.13;;;13.50;71.90
22743;BME280;11538;48.884;8.696;2023-03-22T08:24:42;98448.25;;;13.80;68.92
22743;BME280;11538;48.884;8.696;2023-03-22T08:27:09;98454.69;;;14.06;67.31
22743;BME280;11538;48.884;8.696;2023-03-22T08:29:36;98453.34;;;14.33;67.06
22743;BME280;11538;48.884;8.696;2023-03-22T08:32:03;98442.56;;;14.58;68.42
22743;BME280;11538;48.884;8.696;2023-03-22T08:34:36;98457.69;;;14.76;63.15
22743;BME280;11538;48.884;8.696;2023-03-22T08:37:04;98461.84;;;14.95;61.25
22743;BME280;11538;48.884;8.696;2023-03-22T08:39:32;98454.47;;;15.08;61.49
22743;BME280;11538;48.884;8.696;2023-03-22T08:41:59;98449.97;;;15.25;62.02
22743;BME280;11538;48.884;8.696;2023-03-22T08:44:27;98446.44;;;15.49;62.13
22743;BME280;11538;48.884;8.696;2023-03-22T08:46:54;98437.53;;;15.77;63.26
22743;BME280;11538;48.884;8.696;2023-03-22T08:49:21;98453.03;;;15.85;60.08
22743;BME280;11538;48.884;8.696;2023-03-22T08:51:48;98448.50;;;15.89;60.40
22743;BME280;11538;48.884;8.696;2023-03-22T08:54:15;98443.72;;;16.11;63.42
22743;BME280;11538;48.884;8.696;2023-03-22T08:56:42;98442.06;;;16.35;64.04
22743;BME280;11538;48.884;8.696;2023-03-22T08:59:09;98441.97;;;16.60;57.47
22743;BME280;11538;48.884;8.696;2023-03-22T09:01:36;98442.09;;;16.79;57.26
22743;BME280;11538;48.884;8.696;2023-03-22T09:04:04;98442.16;;;16.95;60.77
22743;BME280;11538;48.884;8.696;2023-03-22T09:06:31;98447.06;;;17.18;58.87
22743;BME280;11538;48.884;8.696;2023-03-22T09:08:58;98440.47;;;17.35;57.91
22743;BME280;11538;48.884;8.696;2023-03-22T09:11:27;98435.16;;;17.43;55.20
22743;BME280;11538;48.884;8.696;2023-03-22T09:13:53;98427.28;;;17.57;51.67
22743;BME280;11538;48.884;8.696;2023-03-22T09:16:20;98444.44;;;17.54;51.18
22743;BME280;11538;48.884;8.696;2023-03-22T09:18:47;98433.69;;;17.65;54.33
22743;BME280;11538;48.884;8.696;2023-03-22T09:21:14;98437.94;;;17.78;55.35
22743;BME280;11538;48.884;8.696;2023-03-22T09:23:41;98432.53;;;17.82;53.55
22743;BME280;11538;48.884;8.696;2023-03-22T09:26:13;98428.38;;;17.88;57.06
22743;BME280;11538;48.884;8.696;2023-03-22T09:28:40;98431.72;;;17.81;54.15
22743;BME280;11538;48.884;8.696;2023-03-22T09:31:09;98421.91;;;17.80;58.79
22743;BME280;11538;48.884;8.696;2023-03-22T09:33:37;98420.31;;;17.79;58.23
22743;BME280;11538;48.884;8.696;2023-03-22T09:36:06;98412.94;;;18.00;60.20
22743;BME280;11538;48.884;8.696;2023-03-22T09:38:33;98409.88;;;18.21;62.05
22743;BME280;11538;48.884;8.696;2023-03-22T09:41:43;98416.16;;;18.41;52.59
22743;BME280;11538;48.884;8.696;2023-03-22T09:44:20;98407.63;;;18.26;50.42
22743;BME280;11538;48.884;8.696;2023-03-22T09:46:54;98402.88;;;18.23;53.68
22743;BME280;11538;48.884;8.696;2023-03-22T09:49:28;98404.41;;;18.21;54.05
22743;BME280;11538;48.884;8.696;2023-03-22T09:51:57;98405.56;;;18.39;55.52
22743;BME280;11538;48.884;8.696;2023-03-22T09:54:36;98415.16;;;18.69;52.54
22743;BME280;11538;48.884;8.696;2023-03-22T10:00:10;98402.25;;;18.93;49.02
22743;BME280;11538;48.884;8.696;2023-03-22T10:02:57;98411.69;;;19.15;53.73
22743;BME280;11538;48.884;8.696;2023-03-22T10:05:49;98409.72;;;19.39;52.06
22743;BME280;11538;48.884;8.696;2023-03-22T10:17:00;98391.69;;;18.95;45.61
22743;BME280;11538;48.884;8.696;2023-03-22T10:19:59;98394.22;;;19.04;53.37
22743;BME280;11538;48.884;8.696;2023-03-22T10:22:37;98386.19;;;19.18;50.56
22743;BME280;11538;48.884;8.696;2023-03-22T10:25:08;98379.31;;;19.28;45.99
22743;BME280;11538;48.884;8.696;2023-03-22T10:27:41;98377.47;;;19.36;48.88
22743;BME280;11538;48.884;8.696;2023-03-22T10:30:26;98380.25;;;19.39;44.40
22743;BME280;11538;48.884;8.696;2023-03-22T10:36:00;98382.91;;;19.09;42.57
22743;BME280;11538;48.884;8.696;2023-03-22T10:38:30;98384.38;;;19.26;44.40
22743;BME280;11538;48.884;8.696;2023-03-22T10:41:01;98385.13;;;19.50;45.35
22743;BME280;11538;48.884;8.696;2023-03-22T10:43:36;98376.88;;;19.50;41.34
22743;BME280;11538;48.884;8.696;2023-03-22T10:46:11;98368.22;;;19.48;42.36
22743;BME280;11538;48.884;8.696;2023-03-22T10:48:44;98374.94;;;19.77;41.96
22743;BME280;11538;48.884;8.696;2023-03-22T10:51:39;98383.69;;;20.13;42.12
22743;BME280;11538;48.884;8.696;2023-03-22T10:54:13;98383.16;;;20.69;44.81
22743;BME280;11538;48.884;8.696;2023-03-22T10:56:41;98380.63;;;20.91;38.64
22743;BME280;11538;48.884;8.696;2023-03-22T10:59:48;98364.16;;;20.98;39.25
22743;BME280;11538;48.884;8.696;2023-03-22T11:02:30;98369.94;;;20.82;38.40
22743;BME280;11538;48.884;8.696;2023-03-22T11:05:01;98360.19;;;20.57;40.69
22743;BME280;11538;48.884;8.696;2023-03-22T11:07:41;98362.16;;;20.23;42.76
22743;BME280;11538;48.884;8.696;2023-03-22T11:12:53;98356.16;;;20.13;39.13
22743;BME280;11538;48.884;8.696;2023-03-22T11:15:27;98349.78;;;20.40;42.27
22743;BME280;11538;48.884;8.696;2023-03-22T11:18:01;98348.88;;;20.66;44.51
22743;BME280;11538;48.884;8.696;2023-03-22T11:20:31;98338.50;;;20.90;38.84
22743;BME280;11538;48.884;8.696;2023-03-22T11:23:03;98343.16;;;20.82;42.21
22743;BME280;11538;48.884;8.696;2023-03-22T11:25:35;98355.19;;;21.08;36.56
22743;BME280;11538;48.884;8.696;2023-03-22T11:30:32;98346.16;;;21.11;35.78
22743;BME280;11538;48.884;8.696;2023-03-22T11:33:19;98349.41;;;21.80;35.46
22743;BME280;11538;48.884;8.696;2023-03-22T11:35:55;98333.75;;;22.06;34.15
22743;BME280;11538;48.884;8.696;2023-03-22T11:41:00;98342.28;;;21.19;34.65
22743;BME280;11538;48.884;8.696;2023-03-22T11:43:38;98347.84;;;20.78;34.74
22743;BME280;11538;48.884;8.696;2023-03-22T11:46:07;98344.28;;;20.78;34.99
22743;BME280;11538;48.884;8.696;2023-03-22T11:48:35;98335.00;;;20.93;34.48
22743;BME280;11538;48.884;8.696;2023-03-22T11:51:14;98328.25;;;20.87;34.45
22743;BME280;11538;48.884;8.696;2023-03-22T11:53:46;98335.53;;;20.72;35.09
22743;BME280;11538;48.884;8.696;2023-03-22T11:56:26;98324.25;;;20.09;36.69
22743;BME280;11538;48.884;8.696;2023-03-22T11:59:13;98329.28;;;20.03;36.26
22743;BME280;11538;48.884;8.696;2023-03-22T12:01:56;98320.94;;;19.96;35.91
22743;BME280;11538;48.884;8.696;2023-03-22T12:04:28;98314.00;;;20.06;35.52
22743;BME280;11538;48.884;8.696;2023-03-22T12:06:59;98315.16;;;20.39;38.54
22743;BME280;11538;48.884;8.696;2023-03-22T12:12:30;98314.72;;;21.86;33.55
22743;BME280;11538;48.884;8.696;2023-03-22T12:15:12;98302.34;;;22.51;32.26
22743;BME280;11538;48.884;8.696;2023-03-22T12:17:49;98303.56;;;23.26;32.02
22743;BME280;11538;48.884;8.696;2023-03-22T12:20:35;98301.69;;;24.22;31.32
22743;BME280;11538;48.884;8.696;2023-03-22T12:23:19;98306.97;;;24.70;29.82
22743;BME280;11538;48.884;8.696;2023-03-22T12:26:14;98303.09;;;24.56;29.53
22743;BME280;11538;48.884;8.696;2023-03-22T12:29:03;98313.13;;;24.35;30.08
22743;BME280;11538;48.884;8.696;2023-03-22T12:31:46;98292.03;;;24.52;29.52
22743;BME280;11538;48.884;8.696;2023-03-22T12:34:25;98291.25;;;25.05;29.41
22743;BME280;11538;48.884;8.696;2023-03-22T12:37:00;98292.47;;;25.46;29.18
22743;BME280;11538;48.884;8.696;2023-03-22T12:39:36;98293.31;;;25.39;29.06
22743;BME280;11538;48.884;8.696;2023-03-22T12:42:25;98287.78;;;24.93;30.89
22743;BME280;11538;48.884;8.696;2023-03-22T12:45:03;98284.47;;;23.75;31.27
22743;BME280;11538;48.884;8.696;2023-03-22T12:47:42;98275.69;;;24.02;30.63
22743;BME280;11538;48.884;8.696;2023-03-22T12:50:19;98278.53;;;24.58;30.25
22743;BME280;11538;48.884;8.696;2023-03-22T12:52:51;98279.06;;;25.37;28.59
22743;BME280;11538;48.884;8.696;2023-03-22T12:55:32;98267.31;;;25.95;28.32
22743;BME280;11538;48.884;8.696;2023-03-22T12:58:00;98267.47;;;25.49;28.50
22743;BME280;11538;48.884;8.696;2023-03-22T13:00:39;98268.63;;;25.87;28.61
22743;BME280;11538;48.884;8.696;2023-03-22T13:03:25;98264.16;;;26.24;27.99
22743;BME280;11538;48.884;8.696;2023-03-22T13:06:06;98263.44;;;26.20;27.94
22743;BME280;11538;48.884;8.696;2023-03-22T13:09:15;98260.56;;;26.78;27.36
22743;BME280;11538;48.884;8.696;2023-03-22T13:30:32;98231.69;;;26.96;26.85
22743;BME280;11538;48.884;8.696;2023-03-22T13:36:04;98232.59;;;26.38;26.80
22743;BME280;11538;48.884;8.696;2023-03-22T13:38:41;98219.44;;;25.52;27.29
22743;BME280;11538;48.884;8.696;2023-03-22T13:41:25;98234.94;;;25.50;27.86
22743;BME280;11538;48.884;8.696;2023-03-22T13:43:59;98224.44;;;25.96;27.68
22743;BME280;11538;48.884;8.696;2023-03-22T13:46:44;98218.31;;;26.08;27.81
22743;BME280;11538;48.884;8.696;2023-03-22T13:49:47;98225.34;;;25.16;28.24
22743;BME280;11538;48.884;8.696;2023-03-22T13:52:58;98221.81;;;24.66;29.05
22743;BME280;11538;48.884;8.696;2023-03-22T14:01:37;98209.94;;;22.44;31.82
22743;BME280;11538;48.884;8.696;2023-03-22T14:04:18;98204.44;;;22.70;31.96
22743;BME280;11538;48.884;8.696;2023-03-22T14:06:56;98190.22;;;22.71;32.39
22743;BME280;11538;48.884;8.696;2023-03-22T14:09:42;98190.53;;;21.97;33.75
22743;BME280;11538;48.884;8.696;2023-03-22T14:12:52;98186.50;;;21.66;34.73
22743;BME280;11538;48.884;8.696;2023-03-22T14:15:25;98187.72;;;21.75;34.72
22743;BME280;11538;48.884;8.696;2023-03-22T14:18:27;98186.19;;;21.89;34.71
22743;BME280;11538;48.884;8.696;2023-03-22T14:21:02;98188.06;;;21.63;34.98
22743;BME280;11538;48.884;8.696;2023-03-22T14:23:38;98184.06;;;21.50;35.52
22743;BME280;11538;48.884;8.696;2023-03-22T14:26:21;98178.88;;;21.41;35.89
22743;BME280;11538;48.884;8.696;2023-03-22T14:28:49;98176.50;;;21.36;35.62
22743;BME280;11538;48.884;8.696;2023-03-22T14:31:24;98179.69;;;21.41;35.95
22743;BME280;11538;48.884;8.696;2023-03-22T14:33:52;98171.72;;;21.25;36.23
22743;BME280;11538;48.884;8.696;2023-03-22T14:36:20;98171.56;;;20.96;36.55
22743;BME280;11538;48.884;8.696;2023-03-22T14:38:50;98162.88;;;20.87;36.89
22743;BME280;11538;48.884;8.696;2023-03-22T14:41:23;98171.84;;;20.80;37.00
22743;BME280;11538;48.884;8.696;2023-03-22T14:44:00;98167.56;;;20.86;37.28
22743;BME280;11538;48.884;8.696;2023-03-22T14:46:36;98161.66;;;20.84;36.58
22743;BME280;11538;48.884;8.696;2023-03-22T14:49:15;98166.47;;;20.46;36.97
22743;BME280;11538;48.884;8.696;2023-03-22T14:51:45;98172.03;;;20.05;38.19
22743;BME280;11538;48.884;8.696;2023-03-22T14:54:21;98160.00;;;19.86;38.02
22743;BME280;11538;48.884;8.696;2023-03-22T14:56:51;98156.38;;;19.78;38.23
22743;BME280;11538;48.884;8.696;2023-03-22T14:59:19;98165.06;;;19.80;37.84